createdAt,value
2019-05-21T00:01:04.391Z,11.27
2019-05-21T00:05:58.823Z,11.30
2019-05-21T00:10:52.484Z,11.20
2019-05-21T00:20:39.374Z,12.73
2019-05-21T00:25:35.657Z,12.47
2019-05-21T00:31:05.974Z,11.97
2019-05-21T00:36:37.731Z,11.77
2019-05-21T00:42:01.847Z,12.07
2019-05-21T00:47:01.650Z,11.17
2019-05-21T00:52:07.121Z,12.17
2019-05-21T00:56:51.818Z,14.97
2019-05-21T01:01:45.935Z,12.50
2019-05-21T01:06:40.676Z,21.00
2019-05-21T01:11:35.244Z,12.40
2019-05-21T01:16:29.470Z,12.27
2019-05-21T01:21:23.445Z,12.23
2019-05-21T01:26:17.529Z,13.17
2019-05-21T01:31:11.527Z,18.13
2019-05-21T01:36:05.478Z,13.97
2019-05-21T01:40:59.318Z,16.47
2019-05-21T01:45:53.143Z,26.77
2019-05-21T01:50:47.483Z,17.43
2019-05-21T01:55:42.347Z,22.37
2019-05-21T02:00:36.381Z,20.80
2019-05-21T02:05:33.441Z,17.77
2019-05-21T02:10:26.882Z,23.00
2019-05-21T02:15:21.470Z,13.27
2019-05-21T02:20:17.344Z,21.93
2019-05-21T02:25:12.032Z,14.40
2019-05-21T02:39:52.119Z,15.73
2019-05-21T02:44:45.982Z,16.20
2019-05-21T02:49:39.764Z,14.33
2019-05-21T02:54:40.781Z,14.10
2019-05-21T02:59:32.113Z,15.47
2019-05-21T03:04:26.107Z,12.90
2019-05-21T03:09:19.825Z,13.00
2019-05-21T03:19:08.939Z,12.53
2019-05-21T03:24:03.866Z,15.00
2019-05-21T03:28:57.759Z,12.77
2019-05-21T03:33:51.904Z,11.67
2019-05-21T03:38:49.174Z,14.57
2019-05-21T03:48:37.362Z,14.20
2019-05-21T03:53:31.458Z,13.07
2019-05-21T03:58:25.926Z,14.27
2019-05-21T04:03:19.815Z,13.00
2019-05-21T04:08:13.644Z,12.87
2019-05-21T04:13:08.110Z,15.83
2019-05-21T04:18:06.683Z,10.63
2019-05-21T04:23:00.539Z,8.63
2019-05-21T04:27:55.621Z,7.77
2019-05-21T04:32:49.521Z,6.93
2019-05-21T04:37:43.725Z,6.27
2019-05-21T04:42:37.924Z,6.30
2019-05-21T04:47:32.308Z,4.80
2019-05-21T04:52:26.441Z,4.97
2019-05-21T04:57:22.125Z,5.03
2019-05-21T05:02:16.294Z,5.40
2019-05-21T05:07:26.942Z,5.40
2019-05-21T05:12:08.859Z,5.20
2019-05-21T05:17:03.276Z,5.10
2019-05-21T05:21:57.205Z,4.90
2019-05-21T05:26:55.231Z,4.70
2019-05-21T05:31:49.944Z,4.43
2019-05-21T05:36:44.474Z,4.57
2019-05-21T05:41:39.042Z,4.60
2019-05-21T05:46:33.958Z,4.87
2019-05-21T05:51:28.866Z,6.10
2019-05-21T05:56:22.854Z,5.70
2019-05-21T06:01:16.616Z,5.33
2019-05-21T06:06:12.739Z,4.87
2019-05-21T06:11:09.677Z,4.87
2019-05-21T06:16:04.686Z,4.50
2019-05-21T06:21:02.291Z,4.00
2019-05-21T06:25:57.365Z,3.53
2019-05-21T06:30:52.658Z,3.70
2019-05-21T06:35:47.961Z,3.40
2019-05-21T06:41:01.940Z,3.33
2019-05-21T06:45:56.082Z,3.20
2019-05-21T06:50:52.434Z,3.70
2019-05-21T06:55:47.218Z,3.57
2019-05-21T07:00:42.943Z,2.97
2019-05-21T07:05:37.003Z,2.47
2019-05-21T07:10:31.202Z,2.20
2019-05-21T07:15:24.973Z,3.30
2019-05-21T07:20:20.557Z,1.80
2019-05-21T07:25:16.252Z,1.80
2019-05-21T07:30:11.440Z,2.47
2019-05-21T07:35:09.125Z,2.47
2019-05-21T07:40:03.555Z,1.57
2019-05-21T07:45:00.509Z,2.07
2019-05-21T07:49:55.350Z,1.40
2019-05-21T07:54:51.014Z,2.13
2019-05-21T07:59:47.478Z,2.70
2019-05-21T08:04:42.907Z,3.13
2019-05-21T08:09:37.683Z,1.70
2019-05-21T08:14:33.453Z,2.63
2019-05-21T08:19:31.482Z,1.57
2019-05-21T08:24:26.862Z,1.50
2019-05-21T08:29:23.222Z,1.12
2019-05-21T08:34:18.420Z,1.30
2019-05-21T08:39:33.872Z,1.22
2019-05-21T08:44:29.465Z,0.97
2019-05-21T08:49:26.719Z,1.70
2019-05-21T08:54:23.342Z,1.07
2019-05-21T08:59:25.991Z,1.40
2019-05-21T09:04:22.233Z,1.60
2019-05-21T09:09:16.343Z,0.90
2019-05-21T09:14:11.457Z,1.93
2019-05-21T09:19:06.562Z,0.90
2019-05-21T09:24:02.695Z,0.70
2019-05-21T09:28:57.706Z,1.13
2019-05-21T09:33:52.324Z,2.00
2019-05-21T09:38:46.419Z,1.20
2019-05-21T09:43:40.819Z,1.47
2019-05-21T09:48:35.170Z,1.03
2019-05-21T09:53:33.646Z,0.70
2019-05-21T10:03:36.553Z,1.17
2019-05-21T10:08:30.362Z,1.00
2019-05-21T10:13:24.843Z,1.00
2019-05-21T10:18:19.731Z,0.60
2019-05-21T10:23:19.809Z,1.67
2019-05-21T10:28:14.355Z,7.22
2019-05-21T10:33:11.610Z,34.15
2019-05-21T10:38:10.723Z,0.70
2019-05-21T10:43:14.024Z,1.90
2019-05-21T10:48:08.089Z,0.60
2019-05-21T10:53:03.148Z,0.60
2019-05-21T10:57:56.904Z,0.70
2019-05-21T11:02:52.511Z,0.70
2019-05-21T11:07:48.654Z,0.70
2019-05-21T11:12:43.283Z,0.87
2019-05-21T11:17:49.914Z,0.60
2019-05-21T11:22:33.349Z,0.83
2019-05-21T11:27:48.921Z,1.53
2019-05-21T11:32:48.041Z,0.80
2019-05-21T11:37:47.655Z,0.70
2019-05-21T11:42:40.600Z,2.30
2019-05-21T11:47:34.814Z,0.63
2019-05-21T11:52:28.596Z,1.00
2019-05-21T12:02:17.738Z,1.03
2019-05-21T12:07:11.636Z,1.33
2019-05-21T12:12:06.306Z,0.70
2019-05-21T12:17:01.937Z,2.43
2019-05-21T12:26:51.340Z,1.57
2019-05-21T12:31:45.974Z,0.70
2019-05-21T12:36:39.766Z,0.90
2019-05-21T12:41:34.022Z,1.00
2019-05-21T12:46:28.860Z,2.10
2019-05-21T12:51:22.687Z,0.97
2019-05-21T12:56:17.585Z,1.03
2019-05-21T13:01:13.851Z,1.20
2019-05-21T13:06:10.344Z,1.60
2019-05-21T13:11:04.463Z,0.70
2019-05-21T13:15:58.910Z,1.80
2019-05-21T13:20:52.923Z,0.63
2019-05-21T13:25:48.288Z,1.63
2019-05-21T13:30:44.691Z,1.47
2019-05-21T13:35:38.837Z,1.30
2019-05-21T13:40:33.938Z,1.10
2019-05-21T13:45:29.212Z,3.33
2019-05-21T13:50:23.668Z,0.90
2019-05-21T13:55:19.471Z,1.20
2019-05-21T14:00:21.891Z,1.10
2019-05-21T14:05:16.112Z,0.90
2019-05-21T14:10:16.182Z,1.73
2019-05-21T14:15:08.995Z,1.97
2019-05-21T14:20:06.093Z,1.73
2019-05-21T14:25:00.985Z,1.10
2019-05-21T14:29:56.907Z,0.93
2019-05-21T14:35:00.851Z,1.50
2019-05-21T14:39:46.808Z,1.00
2019-05-21T14:44:41.706Z,0.97
2019-05-21T14:49:36.619Z,1.03
2019-05-21T14:54:30.517Z,1.37
2019-05-21T14:59:26.346Z,0.93
2019-05-21T15:04:20.324Z,1.53
2019-05-21T15:09:17.142Z,2.43
2019-05-21T15:14:16.721Z,3.23
2019-05-21T15:19:10.739Z,1.27
2019-05-21T15:24:07.048Z,3.80
2019-05-21T15:29:02.036Z,1.27
2019-05-21T15:33:57.917Z,4.20
2019-05-21T15:38:52.271Z,2.10
2019-05-21T15:43:48.666Z,1.50
2019-05-21T15:48:43.322Z,1.20
2019-05-21T15:53:37.874Z,2.10
2019-05-21T15:58:34.215Z,3.23
2019-05-21T16:03:30.475Z,1.30
2019-05-21T16:08:26.692Z,1.67
2019-05-21T16:13:20.516Z,3.50
2019-05-21T16:18:15.459Z,1.43
2019-05-21T16:23:10.190Z,2.10
2019-05-21T16:28:08.890Z,1.20
2019-05-21T16:33:04.406Z,1.73
2019-05-21T16:37:59.339Z,1.37
2019-05-21T16:42:54.391Z,1.47
2019-05-21T16:47:48.432Z,2.20
2019-05-21T16:52:42.777Z,3.13
2019-05-21T17:02:30.511Z,1.93
2019-05-21T17:07:30.793Z,1.10
2019-05-21T17:12:25.768Z,1.40
2019-05-21T17:27:09.755Z,1.60
2019-05-21T17:32:06.641Z,1.20
2019-05-21T17:37:00.964Z,1.20
2019-05-21T17:41:54.704Z,1.57
2019-05-21T17:46:50.218Z,1.47
2019-05-21T17:51:44.481Z,0.87
2019-05-21T17:56:38.878Z,0.90
2019-05-21T18:01:33.884Z,1.33
2019-05-21T18:06:29.697Z,1.63
2019-05-21T18:11:24.567Z,1.87
2019-05-21T18:16:18.375Z,2.20
2019-05-21T18:21:13.287Z,1.20
2019-05-21T18:31:13.599Z,2.10
2019-05-21T18:36:07.913Z,3.67
2019-05-21T18:46:07.119Z,1.40
2019-05-21T18:51:01.358Z,1.27
2019-05-21T18:55:55.185Z,2.40
2019-05-21T19:00:49.107Z,2.87
2019-05-21T19:05:43.233Z,2.17
2019-05-21T19:10:36.958Z,1.67
2019-05-21T19:15:32.593Z,2.13
2019-05-21T19:20:26.440Z,2.70
2019-05-21T19:25:20.505Z,2.57
2019-05-21T19:30:15.346Z,4.13
2019-05-21T19:35:11.895Z,3.27
2019-05-21T19:40:13.470Z,3.33
2019-05-21T19:45:08.499Z,3.50
2019-05-21T19:50:03.393Z,6.63
2019-05-21T19:54:59.229Z,6.10
2019-05-21T19:59:53.044Z,6.20
2019-05-21T20:04:47.491Z,9.10
2019-05-21T20:09:45.769Z,11.40
2019-05-21T20:14:41.140Z,9.80
2019-05-21T20:19:35.467Z,12.07
2019-05-21T20:44:08.899Z,10.53
2019-05-21T20:49:04.320Z,10.30
2019-05-21T20:53:59.649Z,25.73
2019-05-21T20:58:53.585Z,11.73
2019-05-21T21:03:50.147Z,10.73
2019-05-21T21:08:44.456Z,11.77
2019-05-21T21:13:39.820Z,11.90
2019-05-21T21:18:36.551Z,10.33
2019-05-21T21:28:27.161Z,11.17
2019-05-21T21:33:21.429Z,17.50
2019-05-21T21:38:17.295Z,13.40
2019-05-21T21:43:11.667Z,13.83
2019-05-21T21:48:10.267Z,20.33
2019-05-21T21:53:06.218Z,23.73
2019-05-21T21:58:00.251Z,13.50
2019-05-21T22:02:57.144Z,17.17
2019-05-21T22:07:52.657Z,13.77
2019-05-21T22:12:46.974Z,14.27
2019-05-21T22:17:41.423Z,13.63
2019-05-21T22:22:35.491Z,13.70
2019-05-21T22:27:30.074Z,17.00
2019-05-21T22:32:23.968Z,15.10
2019-05-21T22:37:19.819Z,17.77
2019-05-21T22:42:16.061Z,17.20
2019-05-21T22:47:11.265Z,18.40
2019-05-21T22:52:06.081Z,16.00
2019-05-21T22:57:00.485Z,16.57
2019-05-21T23:01:58.366Z,16.97
2019-05-21T23:06:53.090Z,16.30
2019-05-21T23:11:47.483Z,18.63
2019-05-21T23:16:41.639Z,18.00
2019-05-21T23:21:37.849Z,18.03
2019-05-21T23:26:34.597Z,17.90
2019-05-21T23:31:30.480Z,17.50
2019-05-21T23:36:24.357Z,19.13
2019-05-21T23:41:20.652Z,17.80
2019-05-21T23:46:16.644Z,19.00
2019-05-21T23:51:10.876Z,19.37
2019-05-21T23:56:05.546Z,21.60
